Página principal
METAR-TAF:

METAR-TAF

Aeroportos :

Aeroporto Internacional de Bagdad

Bagdá, Iraque

latitude: 33-15-45N, longitude: 44-14-04E, altura: 35 m

Observação actual do tempo

O boletim foi feito há 28 minutos, às 04:00 UTC
Vento 8 kt de oes-noroeste
Temperatura 9°C
Humidade 100%
Pressão 1026 hPa
Visibilidade 10 km ou mais
sem nuvens abaixo de 1500 metros e sem cumulonimbus

METAR: ORBI 140400Z 30008KT CAVOK 09/09 Q1026 NOSIG

Hora: 07:28 (04:28 UTC)

Previsão

O boletim foi feito há 5 horas e 28 minutos, às 23:00 UTC
Previsão válida de 14 às 00 UTC a 14 às 24 UTC
Vento 7 kt de nor-noroeste
Visibilidade: 7000 m
Probabilidade 40%
de 14 às 01 UTC a 14 às 07 UTC
Visibilidade: 3000 m
neblina

TAF: ORBI 132300Z 1400/1424 34007KT 7000 NSC PROB40 1401/1407 3000 BR

Observações e previsões do tempo de mais de 4000 aeroportos (mensagens METAR e TAF).

As estações disponíveis são os pontos amarelos e vermelhos sobre o mapa.

Mova o rato sobre o mapa para ver o nome da estação.

Depois clique no ponto para visualizar as observações e previsões meteorológicas.

Para alterar o mapa : clique nos botões verdes com uma cruz preta para aumentar o zoom; no botão verde com uma pitada de zoom; ou nas setas verdes para mapas adjacentes.


METAR-TAF: